Weather at McCarran International Airport

Public forecast

Using degrees Fahrenheit for public forecast. Weather courtesy of forecast.io.

Current aviation weather report (METAR) for McCarran International Airport

Retrieved 2021/07/29 08:56 UTC (21 minutes ago):

KLAS 290856Z 19005KT 10SM FEW075 SCT110 OVC150 33/12 A2992 RMK AO2 SLP099 VCSH T03280117 58006

Aviation forecast (TAF) for McCarran International Airport

Retrieved 2021/07/29 06:22 UTC (3 hours ago):

TAF KLAS 290520Z 2906/3012 20009KT P6SM SCT150 BKN220 FM291000 VRB06KT P6SM SCT150 FM291900 12007KT P6SM SCT150 FM300200 19010KT P6SM SCT080 SCT150 BKN200 PROB30 3003/3009 21015G25KT TSRA SCT060CB FM300900 07007KT P6SM SCT150 BKN200